Time;durP1;ratioP1;P1;durP2;ratioP2;P2;SDS_P1;SDS_P2;PMS_P1;PMS_P2;Temp;Humidity;BMP_temperature;BMP_pressure;BME280_temperature;BME280_humidity;BME280_pressure;Samples;Min_cycle;Max_cycle;Signal;HPM_P1;HPM_P2
2022/10/11 00:01:40;;;;;;;22.90;4.75;;;11.20;99.90;;;;;;5011304;28;20215;-55
2022/10/11 00:04:05;;;;;;;19.25;4.15;;;11.10;99.90;;;;;;5012679;28;20272;-50
2022/10/11 00:06:31;;;;;;;20.88;3.83;;;11.10;99.90;;;;;;5011543;28;20296;-52
2022/10/11 00:08:57;;;;;;;18.75;4.32;;;11.10;99.90;;;;;;5010731;28;20181;-56
2022/10/11 00:11:23;;;;;;;16.85;3.97;;;11.10;99.90;;;;;;5006409;28;20185;-55
2022/10/11 00:13:48;;;;;;;15.65;3.45;;;11.00;99.90;;;;;;5006564;28;20185;-56
2022/10/11 00:16:14;;;;;;;17.52;4.20;;;11.00;99.90;;;;;;5011009;28;20204;-54
2022/10/11 00:18:40;;;;;;;16.02;4.18;;;11.00;99.90;;;;;;5012452;28;20193;-53
2022/10/11 00:21:10;;;;;;;16.55;4.35;;;11.00;99.90;;;;;;5011144;28;20180;-53
2022/10/11 00:23:37;;;;;;;16.08;3.38;;;11.00;99.90;;;;;;5014937;28;20705;-53
2022/10/11 00:26:06;;;;;;;16.00;2.80;;;11.00;99.90;;;;;;5016584;28;20191;-57
2022/10/11 00:28:32;;;;;;;19.05;2.92;;;11.00;99.90;;;;;;5031549;28;20183;-54
2022/10/11 00:30:58;;;;;;;12.85;2.78;;;11.00;99.90;;;;;;5014875;28;20177;-55
2022/10/11 00:33:23;;;;;;;12.63;3.80;;;11.10;99.90;;;;;;5013048;28;20212;-55
2022/10/11 00:35:49;;;;;;;13.93;3.67;;;11.10;99.90;;;;;;5015847;28;20219;-55
2022/10/11 00:38:16;;;;;;;17.50;4.00;;;11.00;99.90;;;;;;5015940;28;20545;-57
2022/10/11 00:40:42;;;;;;;19.45;4.30;;;11.00;99.90;;;;;;5016083;28;20199;-56
2022/10/11 00:43:29;;;;;;;15.38;3.70;;;11.00;99.90;;;;;;5013942;28;20236;-53
2022/10/11 00:45:55;;;;;;;12.15;3.55;;;10.90;99.90;;;;;;5015315;28;20238;-55
2022/10/11 00:48:22;;;;;;;14.80;3.80;;;10.90;99.90;;;;;;5014622;28;20173;-56
2022/10/11 00:50:48;;;;;;;13.93;5.25;;;10.90;99.90;;;;;;5015784;28;20590;-56
2022/10/11 00:53:14;;;;;;;15.93;3.65;;;10.90;99.90;;;;;;5012742;28;20191;-58
2022/10/11 00:55:52;;;;;;;13.40;2.80;;;10.80;99.90;;;;;;5009631;28;20220;-55
2022/10/11 00:58:18;;;;;;;11.80;3.45;;;10.80;99.90;;;;;;5015085;28;20819;-57
2022/10/11 01:00:44;;;;;;;15.60;3.05;;;10.80;99.90;;;;;;5015545;28;20235;-56
2022/10/11 01:03:10;;;;;;;9.95;2.90;;;10.70;99.90;;;;;;5013106;28;20776;-58
2022/10/11 01:05:37;;;;;;;15.77;3.88;;;10.70;99.90;;;;;;5012014;28;20650;-58
2022/10/11 01:08:05;;;;;;;13.55;3.00;;;10.70;99.90;;;;;;5015147;28;20181;-56
2022/10/11 01:10:31;;;;;;;14.48;3.45;;;10.60;99.90;;;;;;5014886;28;20192;-56
2022/10/11 01:13:24;;;;;;;15.50;4.75;;;10.60;99.90;;;;;;5012853;28;20540;-54
2022/10/11 01:16:02;;;;;;;13.48;3.13;;;10.60;99.90;;;;;;5009437;28;20307;-54
2022/10/11 01:18:43;;;;;;;11.60;3.40;;;10.60;99.90;;;;;;5014059;28;20215;-51
2022/10/11 01:21:44;;;;;;;19.08;4.03;;;10.50;99.90;;;;;;5014492;28;20601;-54
2022/10/11 01:24:31;;;;;;;17.60;4.00;;;10.50;99.90;;;;;;4960358;28;20190;-54
2022/10/11 01:27:19;;;;;;;16.30;4.43;;;10.40;99.90;;;;;;5009060;28;20184;-56
2022/10/11 01:30:03;;;;;;;12.25;3.58;;;10.40;99.90;;;;;;4995314;28;20240;-53
2022/10/11 01:32:42;;;;;;;13.20;3.25;;;10.40;99.90;;;;;;5011019;28;20185;-56
2022/10/11 01:35:31;;;;;;;16.13;3.53;;;10.40;99.90;;;;;;5001081;28;20207;-56
2022/10/11 01:38:10;;;;;;;10.30;2.90;;;10.30;99.90;;;;;;5012321;28;20768;-58
2022/10/11 01:40:42;;;;;;;10.52;2.83;;;10.30;99.90;;;;;;5014928;28;20545;-54
2022/10/11 01:43:09;;;;;;;12.98;3.03;;;10.20;99.90;;;;;;5012858;28;20248;-56
2022/10/11 01:45:36;;;;;;;17.73;3.30;;;10.20;99.90;;;;;;5012345;28;20272;-56
2022/10/11 01:48:07;;;;;;;12.38;2.95;;;10.20;99.90;;;;;;5008015;28;20276;-63
2022/10/11 01:50:47;;;;;;;10.93;2.88;;;10.10;99.90;;;;;;5013278;28;20672;-56
2022/10/11 01:53:51;;;;;;;11.77;3.00;;;10.10;99.90;;;;;;5010775;28;20177;-55
2022/10/11 01:56:44;;;;;;;10.23;2.35;;;10.10;99.90;;;;;;5006634;28;20204;-56
2022/10/11 01:59:16;;;;;;;13.18;2.85;;;10.10;99.90;;;;;;5013822;28;20645;-55
2022/10/11 02:01:47;;;;;;;10.05;2.78;;;10.00;99.90;;;;;;5014616;28;20187;-53
2022/10/11 02:04:28;;;;;;;11.07;2.80;;;10.00;99.90;;;;;;5012890;28;20215;-52
2022/10/11 02:07:04;;;;;;;14.18;2.60;;;10.00;99.90;;;;;;5013777;28;20539;-55
2022/10/11 02:09:42;;;;;;;11.90;2.83;;;10.00;99.90;;;;;;5013549;28;20230;-58
2022/10/11 02:12:12;;;;;;;13.45;2.90;;;9.90;99.90;;;;;;5013091;28;20701;-56
2022/10/11 02:14:42;;;;;;;5.80;2.60;;;9.90;99.90;;;;;;5009800;28;20180;-54
2022/10/11 02:17:16;;;;;;;13.27;2.75;;;10.00;99.90;;;;;;5013248;28;20646;-54
2022/10/11 02:19:46;;;;;;;13.98;2.72;;;9.90;99.90;;;;;;5013793;28;20268;-52
2022/10/11 02:22:29;;;;;;;11.52;2.53;;;9.90;99.90;;;;;;5013926;28;20318;-56
2022/10/11 02:24:58;;;;;;;14.60;3.22;;;9.80;99.90;;;;;;5019457;28;20254;-54
2022/10/11 02:27:28;;;;;;;11.18;2.75;;;9.80;99.90;;;;;;5012542;28;20204;-52
2022/10/11 02:29:57;;;;;;;16.70;3.60;;;9.70;99.90;;;;;;5013934;28;20322;-52
2022/10/11 02:32:25;;;;;;;13.68;3.10;;;9.70;99.90;;;;;;5013612;28;20334;-55
2022/10/11 02:34:53;;;;;;;11.13;3.30;;;9.70;99.90;;;;;;5009853;28;20196;-54
2022/10/11 02:37:40;;;;;;;11.40;2.88;;;9.60;99.90;;;;;;5011650;28;20189;-54
2022/10/11 02:40:14;;;;;;;10.90;2.78;;;9.60;99.90;;;;;;5012425;28;20172;-54
2022/10/11 02:42:48;;;;;;;9.13;2.80;;;9.60;99.90;;;;;;5012660;28;20250;-54
2022/10/11 02:45:25;;;;;;;15.25;3.10;;;9.60;99.90;;;;;;5010801;28;20188;-53
2022/10/11 02:47:51;;;;;;;11.27;2.85;;;9.60;99.90;;;;;;5011287;28;20273;-57
2022/10/11 02:50:17;;;;;;;12.20;3.30;;;9.60;99.90;;;;;;5013439;28;20195;-52
2022/10/11 02:52:43;;;;;;;11.13;3.30;;;9.50;99.90;;;;;;5012090;28;20547;-56
2022/10/11 02:55:09;;;;;;;11.18;3.00;;;9.50;99.90;;;;;;5012099;28;20216;-52
2022/10/11 02:57:35;;;;;;;14.32;3.30;;;9.50;99.90;;;;;;5007031;28;20183;-51
2022/10/11 03:00:01;;;;;;;17.55;4.55;;;9.50;99.90;;;;;;5011060;28;20185;-53
2022/10/11 03:02:27;;;;;;;14.93;4.30;;;9.50;99.90;;;;;;5012948;28;20225;-54
2022/10/11 03:04:52;;;;;;;11.25;2.78;;;9.40;99.90;;;;;;5013017;28;20187;-54
2022/10/11 03:07:18;;;;;;;11.23;2.95;;;9.40;99.90;;;;;;5007318;28;20176;-51
2022/10/11 03:09:44;;;;;;;7.57;2.78;;;9.50;99.90;;;;;;5012792;28;20176;-53
2022/10/11 03:12:09;;;;;;;11.98;2.65;;;9.50;99.90;;;;;;5011970;28;20590;-49
2022/10/11 03:14:35;;;;;;;12.98;3.08;;;9.50;99.90;;;;;;5013358;28;20650;-53
2022/10/11 03:17:01;;;;;;;10.68;3.17;;;9.60;99.90;;;;;;5010292;28;20215;-53
2022/10/11 03:19:27;;;;;;;12.32;3.28;;;9.60;99.90;;;;;;5010093;28;20188;-51
2022/10/11 03:21:52;;;;;;;11.73;3.20;;;9.60;99.90;;;;;;5012877;28;20576;-53
2022/10/11 03:24:18;;;;;;;10.50;2.92;;;9.70;99.90;;;;;;5012329;28;20638;-53
2022/10/11 03:26:44;;;;;;;12.15;2.83;;;9.60;99.90;;;;;;5012311;28;20192;-52
2022/10/11 03:29:09;;;;;;;12.68;2.90;;;9.70;99.90;;;;;;5009763;28;20185;-53
2022/10/11 03:31:35;;;;;;;13.77;2.90;;;9.70;99.90;;;;;;5011139;28;20211;-53
2022/10/11 03:34:01;;;;;;;12.95;3.33;;;9.70;99.90;;;;;;5023604;28;20184;-52
2022/10/11 03:36:27;;;;;;;11.82;3.22;;;9.80;99.90;;;;;;5030742;28;20204;-50
2022/10/11 03:38:52;;;;;;;14.93;3.00;;;9.80;99.90;;;;;;5009187;28;20185;-54
2022/10/11 03:41:18;;;;;;;11.65;3.05;;;9.90;99.90;;;;;;5011270;28;20193;-58
2022/10/11 03:43:44;;;;;;;20.08;3.40;;;9.90;99.90;;;;;;5013027;28;20254;-54
2022/10/11 03:46:09;;;;;;;14.45;3.25;;;9.90;99.90;;;;;;5012797;28;20598;-54
2022/10/11 03:48:35;;;;;;;10.25;2.90;;;9.90;99.90;;;;;;5010134;28;20177;-55
2022/10/11 03:51:01;;;;;;;10.98;3.03;;;9.90;99.90;;;;;;5008466;28;20657;-51
2022/10/11 03:53:27;;;;;;;9.48;3.20;;;10.00;99.90;;;;;;5015767;28;20180;-52
2022/10/11 03:55:54;;;;;;;12.70;3.35;;;10.00;99.90;;;;;;4994231;28;20216;-50
2022/10/11 03:58:20;;;;;;;14.38;3.08;;;10.00;99.90;;;;;;4995140;28;20199;-56
2022/10/11 04:00:46;;;;;;;11.90;2.65;;;10.10;99.90;;;;;;4995750;28;20170;-52
2022/10/11 04:03:12;;;;;;;14.93;3.10;;;10.10;99.90;;;;;;5009060;28;20181;-49
2022/10/11 04:05:37;;;;;;;11.30;2.70;;;10.10;99.90;;;;;;5021895;28;20195;-54
2022/10/11 04:08:03;;;;;;;12.65;3.10;;;10.10;99.90;;;;;;5018321;28;21642;-50
2022/10/11 04:10:32;;;;;;;8.25;2.88;;;10.10;99.90;;;;;;5028605;28;20203;-54
2022/10/11 04:12:58;;;;;;;11.13;3.25;;;10.10;99.90;;;;;;5035477;28;20184;-52
2022/10/11 04:15:24;;;;;;;15.23;2.92;;;10.10;99.90;;;;;;5022939;28;20207;-52
2022/10/11 04:17:49;;;;;;;13.52;3.30;;;10.20;99.90;;;;;;5013694;28;20555;-53
2022/10/11 04:20:15;;;;;;;18.05;3.40;;;10.20;99.90;;;;;;5016210;28;20176;-54
2022/10/11 04:22:41;;;;;;;15.18;3.40;;;10.20;99.90;;;;;;5015858;28;20184;-52
2022/10/11 04:25:08;;;;;;;14.30;3.20;;;10.20;99.90;;;;;;5016321;28;20230;-53
2022/10/11 04:27:34;;;;;;;18.85;3.22;;;10.20;99.90;;;;;;5014624;28;20181;-54
2022/10/11 04:30:00;;;;;;;16.90;3.88;;;10.20;99.90;;;;;;5011982;28;20211;-52
2022/10/11 04:32:26;;;;;;;7.72;2.97;;;10.20;99.90;;;;;;5013259;28;20184;-52
2022/10/11 04:34:52;;;;;;;15.50;3.30;;;10.10;99.90;;;;;;5012680;28;20180;-52
2022/10/11 04:37:18;;;;;;;15.73;3.05;;;10.10;99.90;;;;;;5015669;28;20691;-51
2022/10/11 04:39:44;;;;;;;13.30;3.25;;;10.10;99.90;;;;;;5015389;28;20177;-51
2022/10/11 04:42:10;;;;;;;12.75;3.22;;;10.00;99.90;;;;;;5011407;28;20757;-52
2022/10/11 04:44:36;;;;;;;15.82;3.35;;;9.90;99.90;;;;;;5013586;28;20279;-52
2022/10/11 04:47:02;;;;;;;16.05;3.33;;;9.90;99.90;;;;;;5015291;28;20204;-54
2022/10/11 04:49:27;;;;;;;13.30;3.00;;;9.90;99.90;;;;;;5013451;28;20263;-51
2022/10/11 04:51:53;;;;;;;12.93;3.40;;;9.80;99.90;;;;;;5027151;28;20223;-51
2022/10/11 04:54:19;;;;;;;21.30;3.47;;;9.80;99.90;;;;;;5011103;28;20214;-53
2022/10/11 04:56:44;;;;;;;13.57;3.30;;;9.70;99.90;;;;;;5015401;28;20223;-54
2022/10/11 04:59:10;;;;;;;14.57;3.22;;;9.70;99.90;;;;;;5012709;28;20216;-51
2022/10/11 05:01:36;;;;;;;19.25;3.88;;;9.60;99.90;;;;;;5013101;28;20571;-54
2022/10/11 05:04:02;;;;;;;14.45;3.33;;;9.60;99.90;;;;;;5013189;28;20272;-53
2022/10/11 05:06:28;;;;;;;16.73;3.83;;;9.60;99.90;;;;;;5013274;28;20668;-54
2022/10/11 05:08:53;;;;;;;17.80;5.95;;;9.60;99.90;;;;;;5012514;28;20188;-54
2022/10/11 05:11:19;;;;;;;16.30;5.55;;;9.60;99.90;;;;;;5007288;28;20213;-54
2022/10/11 05:13:45;;;;;;;23.63;5.65;;;9.60;99.90;;;;;;5013205;28;20188;-53
2022/10/11 05:16:11;;;;;;;21.83;6.28;;;9.50;99.90;;;;;;5012968;28;20209;-50
2022/10/11 05:18:38;;;;;;;23.58;8.57;;;9.40;99.90;;;;;;5012363;28;20236;-54
2022/10/11 05:21:06;;;;;;;15.63;4.80;;;9.50;99.90;;;;;;5010210;28;20272;-51
2022/10/11 05:23:34;;;;;;;21.25;4.40;;;9.50;99.90;;;;;;5014892;28;20180;-51
2022/10/11 05:26:00;;;;;;;19.88;5.30;;;9.50;99.90;;;;;;5013711;28;20172;-53
2022/10/11 05:28:27;;;;;;;18.08;4.50;;;9.50;99.90;;;;;;5019411;28;20655;-52
2022/10/11 05:30:53;;;;;;;21.20;4.40;;;9.50;99.90;;;;;;5009967;28;20191;-50
2022/10/11 05:33:20;;;;;;;19.42;4.40;;;9.50;99.90;;;;;;5013011;28;20203;-51
2022/10/11 05:35:46;;;;;;;17.77;4.20;;;9.50;99.90;;;;;;5017900;28;20248;-53
2022/10/11 05:38:11;;;;;;;17.63;4.32;;;9.50;99.90;;;;;;5017504;28;20173;-51
2022/10/11 05:40:38;;;;;;;13.27;4.60;;;9.50;99.90;;;;;;5015632;28;20239;-54
2022/10/11 05:43:05;;;;;;;20.13;5.45;;;9.50;99.90;;;;;;5016108;28;20231;-51
2022/10/11 05:45:31;;;;;;;18.05;6.63;;;9.50;99.90;;;;;;5016731;28;20224;-49
2022/10/11 05:47:58;;;;;;;18.92;6.00;;;9.60;99.90;;;;;;5015325;28;20188;-51
2022/10/11 05:50:24;;;;;;;19.73;5.63;;;9.50;99.90;;;;;;5013683;28;20283;-51
2022/10/11 05:52:50;;;;;;;25.50;6.80;;;9.60;99.90;;;;;;5011842;28;20197;-54
2022/10/11 05:55:16;;;;;;;22.02;7.68;;;9.60;99.90;;;;;;5015837;28;20205;-50
2022/10/11 05:57:41;;;;;;;22.77;7.05;;;9.70;99.90;;;;;;5015881;28;20276;-52
2022/10/11 06:00:08;;;;;;;17.27;6.65;;;9.70;99.90;;;;;;5012721;28;20185;-52
2022/10/11 06:02:37;;;;;;;20.38;5.47;;;9.70;99.90;;;;;;5008677;28;20242;-53
2022/10/11 06:05:04;;;;;;;16.88;6.43;;;9.80;99.90;;;;;;5012447;28;20723;-49
2022/10/11 06:07:29;;;;;;;20.27;7.10;;;9.80;99.90;;;;;;5010519;28;20180;-54
2022/10/11 06:09:55;;;;;;;25.00;7.45;;;9.90;99.90;;;;;;5011891;28;20661;-54
2022/10/11 06:12:21;;;;;;;18.65;6.10;;;9.90;99.90;;;;;;5012520;28;20183;-53
2022/10/11 06:14:47;;;;;;;22.73;6.65;;;9.90;99.90;;;;;;5014070;28;20180;-55
2022/10/11 06:17:12;;;;;;;21.40;6.90;;;9.90;99.90;;;;;;5013595;28;20212;-52
2022/10/11 06:19:38;;;;;;;24.48;6.25;;;9.90;99.90;;;;;;5016192;28;20180;-53
2022/10/11 06:22:04;;;;;;;25.67;6.82;;;10.00;99.90;;;;;;5014300;28;20181;-53
2022/10/11 06:24:29;;;;;;;22.00;5.97;;;10.00;99.90;;;;;;5014431;28;20271;-54
2022/10/11 06:26:55;;;;;;;16.70;5.50;;;10.00;99.90;;;;;;5015415;28;20184;-53
2022/10/11 06:29:21;;;;;;;20.05;6.18;;;10.00;99.90;;;;;;5005520;28;20234;-63
2022/10/11 06:31:48;;;;;;;26.95;5.97;;;10.00;99.90;;;;;;5008335;28;20220;-54
2022/10/11 06:34:14;;;;;;;23.45;6.60;;;10.00;99.90;;;;;;5011752;28;20606;-56
2022/10/11 06:36:40;;;;;;;25.60;6.57;;;10.00;99.90;;;;;;5011135;28;20228;-52
2022/10/11 06:39:06;;;;;;;23.58;6.60;;;10.00;99.90;;;;;;5011680;28;20649;-51
2022/10/11 06:41:32;;;;;;;19.80;6.35;;;10.10;99.90;;;;;;5006311;28;20200;-56
2022/10/11 06:43:58;;;;;;;26.63;6.50;;;10.10;99.90;;;;;;5012011;28;20692;-53
2022/10/11 06:46:26;;;;;;;26.83;6.13;;;10.10;99.90;;;;;;5024224;28;20271;-52
2022/10/11 06:48:53;;;;;;;28.45;7.10;;;10.20;99.90;;;;;;5013160;28;20173;-51
2022/10/11 06:51:20;;;;;;;16.92;6.05;;;10.20;99.90;;;;;;5011693;28;20177;-55
2022/10/11 06:53:52;;;;;;;18.83;6.28;;;10.30;99.90;;;;;;4999456;28;20180;-53
2022/10/11 06:56:18;;;;;;;24.70;6.30;;;10.30;99.90;;;;;;5011286;28;20211;-53
2022/10/11 06:58:44;;;;;;;35.13;7.65;;;10.40;99.90;;;;;;5012167;28;20176;-53
2022/10/11 07:01:12;;;;;;;22.50;5.50;;;10.40;99.90;;;;;;5010079;28;20192;-52
2022/10/11 07:03:38;;;;;;;24.65;5.20;;;10.40;99.90;;;;;;5000556;28;20184;-55
2022/10/11 07:06:09;;;;;;;20.35;4.93;;;10.50;99.90;;;;;;5009171;28;20197;-52
2022/10/11 07:08:36;;;;;;;22.80;4.45;;;10.50;99.90;;;;;;5012669;28;20187;-55
2022/10/11 07:11:11;;;;;;;18.15;3.90;;;10.50;99.90;;;;;;5007224;28;20626;-57
2022/10/11 07:13:37;;;;;;;32.17;6.03;;;10.40;99.90;;;;;;5012102;28;20231;-55
2022/10/11 07:16:05;;;;;;;15.93;3.45;;;10.60;99.90;;;;;;5010446;28;20207;-56
2022/10/11 07:18:32;;;;;;;15.35;3.92;;;10.60;99.90;;;;;;5007732;28;20195;-55
2022/10/11 07:21:01;;;;;;;24.88;3.95;;;10.60;99.90;;;;;;4999580;28;20192;-53
2022/10/11 07:23:26;;;;;;;12.13;3.75;;;10.60;99.90;;;;;;5011983;28;20216;-53
2022/10/11 07:25:53;;;;;;;18.35;4.00;;;10.70;99.90;;;;;;5009728;28;20201;-50
2022/10/11 07:28:20;;;;;;;15.40;4.00;;;10.70;99.90;;;;;;5010728;28;20188;-53
2022/10/11 07:30:46;;;;;;;23.23;3.90;;;10.70;99.90;;;;;;4996412;28;20196;-50
2022/10/11 07:33:13;;;;;;;23.23;3.95;;;10.80;99.90;;;;;;5023944;28;20279;-47
2022/10/11 07:35:38;;;;;;;25.42;4.38;;;10.80;99.90;;;;;;5009942;28;20220;-47
2022/10/11 07:38:05;;;;;;;23.23;4.35;;;10.80;99.90;;;;;;5030951;28;20189;-49
2022/10/11 07:40:32;;;;;;;16.77;3.80;;;10.90;99.90;;;;;;5011107;28;20188;-48
2022/10/11 07:42:58;;;;;;;19.08;4.10;;;10.90;99.90;;;;;;5016139;28;20727;-48
2022/10/11 07:45:27;;;;;;;19.08;4.53;;;10.90;99.90;;;;;;5013364;28;20180;-55
2022/10/11 07:47:57;;;;;;;17.75;4.22;;;10.90;99.90;;;;;;5015247;28;20557;-49
2022/10/11 07:50:23;;;;;;;17.13;3.88;;;11.00;99.90;;;;;;5010500;28;20189;-55
2022/10/11 07:52:49;;;;;;;23.92;4.03;;;11.00;99.90;;;;;;5006865;28;20213;-53
2022/10/11 07:55:15;;;;;;;19.33;3.78;;;11.00;99.90;;;;;;5014097;28;20216;-55
2022/10/11 07:57:41;;;;;;;20.30;3.80;;;11.00;99.90;;;;;;5015208;28;20193;-48
2022/10/11 08:00:07;;;;;;;16.95;3.80;;;11.00;99.90;;;;;;5014982;28;20272;-49
2022/10/11 08:02:37;;;;;;;16.42;3.65;;;11.00;99.90;;;;;;5002233;28;20187;-52
2022/10/11 08:05:03;;;;;;;23.75;3.95;;;11.00;99.90;;;;;;5015167;28;20629;-50
2022/10/11 08:07:29;;;;;;;17.38;3.85;;;11.00;99.90;;;;;;5013937;28;20180;-52
2022/10/11 08:09:55;;;;;;;20.45;4.43;;;11.10;99.90;;;;;;5014916;28;20181;-48
2022/10/11 08:12:20;;;;;;;25.58;4.30;;;11.10;99.90;;;;;;5003031;28;20661;-51
2022/10/11 08:14:46;;;;;;;17.27;4.30;;;11.10;99.90;;;;;;5011083;28;20192;-48
2022/10/11 08:17:13;;;;;;;20.65;4.72;;;11.10;99.90;;;;;;5015071;28;20253;-48
2022/10/11 08:19:39;;;;;;;18.23;4.30;;;11.30;99.90;;;;;;5014395;28;20192;-51
2022/10/11 08:22:05;;;;;;;14.57;4.25;;;11.40;99.90;;;;;;5014000;28;20193;-50
2022/10/11 08:24:32;;;;;;;24.67;4.68;;;11.50;99.90;;;;;;5015602;28;20200;-48
2022/10/11 08:26:57;;;;;;;20.33;4.35;;;11.60;99.90;;;;;;5012951;28;20192;-47
2022/10/11 08:29:23;;;;;;;12.75;3.53;;;11.70;99.90;;;;;;5015221;28;20211;-54
2022/10/11 08:31:49;;;;;;;17.05;4.22;;;11.80;99.90;;;;;;5013582;28;20220;-47
2022/10/11 08:34:15;;;;;;;20.63;4.35;;;11.80;99.90;;;;;;5013969;28;20176;-50
2022/10/11 08:36:40;;;;;;;20.02;4.10;;;11.90;99.90;;;;;;5029492;28;20291;-50
2022/10/11 08:39:06;;;;;;;19.90;3.72;;;11.90;99.90;;;;;;5013285;28;20185;-52
2022/10/11 08:41:46;;;;;;;21.17;4.13;;;11.90;99.90;;;;;;5012131;28;20629;-51
2022/10/11 08:44:44;;;;;;;24.42;4.40;;;12.00;99.90;;;;;;5015244;28;20176;-50
2022/10/11 08:47:20;;;;;;;24.23;4.43;;;12.10;99.90;;;;;;5013830;28;20193;-50
2022/10/11 08:49:46;;;;;;;19.58;4.20;;;12.10;99.90;;;;;;5006372;28;20180;-49
2022/10/11 08:52:21;;;;;;;21.77;5.05;;;12.10;99.90;;;;;;5005288;28;20173;-51
2022/10/11 08:54:58;;;;;;;21.08;4.72;;;12.20;99.90;;;;;;5015385;28;20176;-47
2022/10/11 08:57:28;;;;;;;22.52;4.15;;;12.20;99.90;;;;;;5013098;28;20218;-52
2022/10/11 09:00:01;;;;;;;21.70;3.88;;;12.20;99.90;;;;;;5010081;28;20172;-53
2022/10/11 09:02:32;;;;;;;17.20;4.15;;;12.30;99.90;;;;;;5027975;28;20196;-49
2022/10/11 09:04:59;;;;;;;22.40;4.38;;;12.40;99.90;;;;;;5015325;28;20287;-50
2022/10/11 09:07:39;;;;;;;19.08;3.90;;;12.50;99.90;;;;;;5011983;28;20279;-52
2022/10/11 09:10:59;;;;;;;19.05;4.50;;;12.60;99.90;;;;;;4996451;28;20176;-55
2022/10/11 09:14:01;;;;;;;19.98;3.75;;;12.70;99.90;;;;;;4980200;28;20185;-51
2022/10/11 09:16:41;;;;;;;16.70;2.97;;;12.90;99.90;;;;;;5008567;28;20292;-52
2022/10/11 09:20:00;;;;;;;16.52;3.50;;;13.00;99.90;;;;;;5015288;28;20180;-51
2022/10/11 09:22:52;;;;;;;16.10;3.33;;;13.10;99.90;;;;;;4991221;28;20197;-50
2022/10/11 09:25:28;;;;;;;12.30;2.70;;;13.30;99.90;;;;;;5006661;28;20265;-53
2022/10/11 09:28:01;;;;;;;20.98;3.00;;;13.40;99.90;;;;;;4995487;28;20191;-52
2022/10/11 09:30:27;;;;;;;19.45;3.67;;;13.60;99.90;;;;;;5010772;28;20697;-51
2022/10/11 09:33:01;;;;;;;16.42;3.30;;;13.70;99.90;;;;;;5013355;28;20283;-51
2022/10/11 09:35:31;;;;;;;18.05;3.40;;;13.70;99.90;;;;;;5009683;28;20282;-49
2022/10/11 09:38:02;;;;;;;10.23;2.75;;;13.80;99.90;;;;;;4997507;28;20214;-54
2022/10/11 09:40:46;;;;;;;16.65;2.95;;;13.80;99.90;;;;;;5008674;28;20280;-53
2022/10/11 09:43:12;;;;;;;13.52;2.50;;;13.90;99.90;;;;;;5011870;28;20232;-54
2022/10/11 09:45:43;;;;;;;10.23;2.30;;;14.10;99.90;;;;;;4995740;28;20185;-53
2022/10/11 09:48:15;;;;;;;13.57;2.63;;;14.20;99.90;;;;;;5009052;28;20677;-52
2022/10/11 09:50:45;;;;;;;11.45;2.60;;;14.30;99.90;;;;;;5000532;28;20189;-57
2022/10/11 09:53:10;;;;;;;16.08;2.97;;;14.40;99.90;;;;;;5007821;28;20195;-52
2022/10/11 09:55:45;;;;;;;17.60;2.60;;;14.50;99.90;;;;;;4996937;28;20220;-54
2022/10/11 09:58:31;;;;;;;12.88;2.28;;;14.60;99.90;;;;;;5013369;28;20548;-52
2022/10/11 10:01:21;;;;;;;10.90;2.45;;;14.70;99.90;;;;;;5016120;28;20551;-51
2022/10/11 10:03:48;;;;;;;9.35;2.22;;;14.80;99.90;;;;;;5011324;28;20197;-53
2022/10/11 10:06:20;;;;;;;11.98;2.10;;;14.90;99.90;;;;;;5026769;28;20175;-52
2022/10/11 10:08:46;;;;;;;12.65;1.98;;;15.00;99.90;;;;;;5013042;28;20181;-52
2022/10/11 10:11:13;;;;;;;14.68;2.40;;;15.10;99.90;;;;;;5006891;28;20199;-55
2022/10/11 10:13:50;;;;;;;11.05;1.95;;;15.20;99.90;;;;;;5007384;28;20188;-52
2022/10/11 10:16:32;;;;;;;12.43;2.50;;;15.30;99.90;;;;;;5011413;28;20212;-53
2022/10/11 10:19:03;;;;;;;13.85;2.40;;;15.20;99.90;;;;;;5013920;28;20177;-53
2022/10/11 10:21:35;;;;;;;11.48;2.17;;;15.20;99.90;;;;;;5011076;28;20243;-54
2022/10/11 10:24:17;;;;;;;12.23;2.30;;;15.30;99.90;;;;;;5013755;28;20267;-54
2022/10/11 10:27:13;;;;;;;15.15;2.65;;;15.30;99.90;;;;;;5010957;28;20188;-53
2022/10/11 10:29:39;;;;;;;14.63;2.80;;;15.40;99.90;;;;;;5011331;28;20201;-53
2022/10/11 10:32:26;;;;;;;13.23;2.30;;;15.40;99.90;;;;;;4998471;28;20275;-55
2022/10/11 10:35:21;;;;;;;15.70;2.40;;;15.40;99.90;;;;;;4994124;28;20173;-53
2022/10/11 10:38:09;;;;;;;14.98;2.65;;;15.60;99.70;;;;;;5013508;28;20224;-55
2022/10/11 10:40:38;;;;;;;15.80;2.70;;;15.70;99.30;;;;;;5010835;28;20243;-52
2022/10/11 10:43:03;;;;;;;11.57;2.65;;;15.80;99.50;;;;;;5006438;28;20224;-55
2022/10/11 10:45:54;;;;;;;15.88;6.32;;;15.90;99.10;;;;;;5000824;28;20192;-52
2022/10/11 10:48:33;;;;;;;12.85;2.10;;;16.00;98.10;;;;;;5026148;28;20189;-51
2022/10/11 10:51:12;;;;;;;9.70;2.10;;;16.10;97.30;;;;;;5009750;28;20173;-54
2022/10/11 10:53:53;;;;;;;12.45;4.70;;;16.10;97.00;;;;;;5016848;28;20208;-52
2022/10/11 10:56:36;;;;;;;11.35;2.60;;;16.20;97.00;;;;;;5004722;28;20220;-54
2022/10/11 10:59:24;;;;;;;15.88;3.05;;;16.30;96.40;;;;;;5011169;28;20222;-53
2022/10/11 11:02:07;;;;;;;11.55;2.50;;;16.50;96.00;;;;;;5010868;28;20191;-54
2022/10/11 11:04:35;;;;;;;12.50;2.45;;;16.70;95.80;;;;;;5011287;28;20188;-52
2022/10/11 11:07:18;;;;;;;9.93;2.38;;;16.80;95.10;;;;;;4997137;28;20250;-54
2022/10/11 11:10:26;;;;;;;17.95;2.50;;;16.90;94.30;;;;;;5000676;28;20192;-55
2022/10/11 11:13:04;;;;;;;10.85;2.05;;;16.80;93.90;;;;;;5016345;28;20200;-53
2022/10/11 11:15:50;;;;;;;15.70;2.13;;;16.80;94.60;;;;;;5004217;28;20291;-52
2022/10/11 11:18:36;;;;;;;14.68;2.40;;;16.90;94.30;;;;;;5010604;28;20204;-55
2022/10/11 11:21:20;;;;;;;9.02;1.73;;;17.10;93.40;;;;;;5007518;28;20188;-55
2022/10/11 11:24:12;;;;;;;10.23;2.03;;;17.30;93.40;;;;;;5002457;28;20187;-52
2022/10/11 11:27:09;;;;;;;6.38;1.60;;;17.40;93.30;;;;;;4999292;28;20821;-57
2022/10/11 11:29:55;;;;;;;10.52;1.98;;;17.50;93.30;;;;;;5006806;28;20197;-52
2022/10/11 11:33:01;;;;;;;10.80;2.05;;;17.60;93.90;;;;;;5009108;28;20198;-53
2022/10/11 11:35:52;;;;;;;9.25;1.83;;;17.60;93.60;;;;;;5008724;28;20207;-57
2022/10/11 11:38:40;;;;;;;13.63;2.03;;;17.60;93.70;;;;;;5003027;28;20271;-56
2022/10/11 11:41:20;;;;;;;9.68;2.08;;;17.50;94.10;;;;;;5010584;28;20207;-52
2022/10/11 11:44:05;;;;;;;10.00;2.25;;;17.60;94.60;;;;;;5010532;28;20319;-57
2022/10/11 11:46:37;;;;;;;13.77;2.38;;;17.70;94.40;;;;;;5019168;28;20274;-55
2022/10/11 11:49:14;;;;;;;11.00;2.10;;;17.90;94.40;;;;;;5012159;28;20184;-52
2022/10/11 11:51:45;;;;;;;11.82;1.92;;;18.10;94.30;;;;;;5010487;28;20649;-55
2022/10/11 11:54:33;;;;;;;12.20;2.47;;;18.30;93.90;;;;;;5012656;28;20188;-55
2022/10/11 11:57:35;;;;;;;9.85;2.13;;;18.40;92.70;;;;;;4995375;28;20227;-59
2022/10/11 12:00:04;;;;;;;8.82;2.42;;;18.60;91.90;;;;;;5005755;28;20255;-54
2022/10/11 12:02:58;;;;;;;8.93;2.42;;;18.70;90.70;;;;;;5003711;28;20196;-55
2022/10/11 12:05:28;;;;;;;10.35;2.20;;;18.70;88.30;;;;;;4995477;28;20184;-53
2022/10/11 12:08:23;;;;;;;15.27;2.47;;;18.80;87.50;;;;;;5012563;28;20733;-51
2022/10/11 12:10:48;;;;;;;13.35;2.25;;;18.80;85.30;;;;;;5010840;28;20180;-53
2022/10/11 12:13:27;;;;;;;9.95;2.30;;;18.80;83.70;;;;;;5008616;28;20187;-54
2022/10/11 12:16:11;;;;;;;12.65;2.63;;;18.80;83.50;;;;;;4994707;28;20347;-56
2022/10/11 12:18:49;;;;;;;23.05;2.90;;;18.70;82.70;;;;;;4999724;28;20561;-54
2022/10/11 12:21:33;;;;;;;12.90;2.50;;;18.60;79.70;;;;;;5013676;28;20188;-54
2022/10/11 12:24:20;;;;;;;12.63;2.25;;;18.50;82.10;;;;;;5011026;28;20318;-56
2022/10/11 12:26:47;;;;;;;16.40;2.63;;;18.50;83.20;;;;;;5027338;28;20235;-56
2022/10/11 12:29:19;;;;;;;13.55;2.35;;;18.60;82.90;;;;;;5015234;28;20180;-52
2022/10/11 12:32:07;;;;;;;9.90;2.33;;;18.70;82.20;;;;;;5014262;28;20269;-52
2022/10/11 12:34:42;;;;;;;13.30;2.85;;;18.90;81.50;;;;;;5009640;28;20610;-59
2022/10/11 12:37:17;;;;;;;11.18;2.92;;;19.00;79.20;;;;;;5005727;28;20596;-51
2022/10/11 12:39:49;;;;;;;8.02;2.10;;;19.20;76.30;;;;;;5016230;28;20180;-56
2022/10/11 12:42:22;;;;;;;10.57;2.20;;;19.30;75.00;;;;;;5012398;28;20232;-56
2022/10/11 12:45:20;;;;;;;8.88;2.25;;;19.40;74.80;;;;;;5013324;28;20216;-56
2022/10/11 12:48:01;;;;;;;13.55;2.58;;;19.60;73.40;;;;;;5014195;28;20195;-54
2022/10/11 12:50:37;;;;;;;10.82;2.38;;;19.80;73.00;;;;;;5012730;28;20239;-55
2022/10/11 12:53:18;;;;;;;17.48;2.00;;;19.90;73.20;;;;;;5014272;28;20672;-55
2022/10/11 12:56:08;;;;;;;8.00;1.90;;;20.10;73.20;;;;;;5006838;28;20214;-58
2022/10/11 12:58:41;;;;;;;16.58;2.78;;;20.20;69.90;;;;;;5006761;28;20250;-54
2022/10/11 13:01:12;;;;;;;13.45;2.10;;;20.20;71.50;;;;;;5013690;28;20294;-52
2022/10/11 13:03:41;;;;;;;12.10;2.13;;;20.20;71.40;;;;;;5015614;28;20176;-53
2022/10/11 13:06:14;;;;;;;10.23;1.90;;;20.10;69.70;;;;;;5010450;28;20212;-56